createdAt,value
2023-01-30T00:01:37.710Z,12.00
2023-01-30T00:04:09.581Z,10.52
2023-01-30T00:06:42.617Z,16.05
2023-01-30T00:09:15.489Z,13.48
2023-01-30T00:11:44.958Z,10.20
2023-01-30T00:14:14.884Z,12.60
2023-01-30T00:16:44.810Z,13.65
2023-01-30T00:19:16.019Z,13.45
2023-01-30T00:21:45.795Z,17.55
2023-01-30T00:24:15.462Z,17.27
2023-01-30T00:26:45.525Z,14.63
2023-01-30T00:29:15.895Z,14.80
2023-01-30T00:31:46.755Z,13.85
2023-01-30T00:34:18.337Z,16.40
2023-01-30T00:36:56.015Z,11.32
2023-01-30T00:39:36.455Z,15.85
2023-01-30T00:42:23.698Z,17.48
2023-01-30T00:45:13.594Z,12.32
2023-01-30T00:47:44.319Z,13.80
2023-01-30T00:50:15.724Z,16.15
2023-01-30T00:52:46.658Z,19.45
2023-01-30T00:55:17.068Z,18.88
2023-01-30T00:57:48.114Z,15.98
2023-01-30T01:00:21.243Z,14.15
2023-01-30T01:02:50.856Z,14.48
2023-01-30T01:05:22.394Z,13.68
2023-01-30T01:07:53.083Z,19.02
2023-01-30T01:10:23.181Z,14.07
2023-01-30T01:12:53.780Z,16.55
2023-01-30T01:15:25.139Z,15.00
2023-01-30T01:17:55.305Z,19.40
2023-01-30T01:20:26.916Z,20.52
2023-01-30T01:22:57.221Z,14.75
2023-01-30T01:25:28.066Z,23.42
2023-01-30T01:27:58.102Z,18.13
2023-01-30T01:30:27.918Z,21.40
2023-01-30T01:32:59.307Z,16.25
2023-01-30T01:35:32.054Z,16.40
2023-01-30T01:38:03.733Z,16.10
2023-01-30T01:40:50.711Z,15.73
2023-01-30T01:43:22.006Z,22.52
2023-01-30T01:45:59.037Z,18.25
2023-01-30T01:48:32.143Z,17.63
2023-01-30T01:51:07.379Z,17.42
2023-01-30T01:53:41.664Z,20.77
2023-01-30T01:56:12.731Z,23.08
2023-01-30T01:58:48.281Z,17.58
2023-01-30T02:01:21.121Z,15.05
2023-01-30T02:03:55.767Z,20.20
2023-01-30T02:06:29.833Z,19.27
2023-01-30T02:09:04.158Z,14.60
2023-01-30T02:11:41.878Z,20.95
2023-01-30T02:14:13.546Z,22.50
2023-01-30T02:16:45.224Z,22.75
2023-01-30T02:20:19.811Z,17.40
2023-01-30T02:23:32.897Z,22.13
2023-01-30T02:26:38.479Z,22.80
2023-01-30T02:30:00.289Z,21.30
2023-01-30T02:32:35.774Z,20.05
2023-01-30T02:35:16.883Z,22.63
2023-01-30T02:37:56.441Z,24.60
2023-01-30T02:40:41.076Z,22.60
2023-01-30T02:43:20.737Z,21.02
2023-01-30T02:45:56.469Z,19.15
2023-01-30T02:48:36.176Z,30.38
2023-01-30T02:51:11.217Z,20.63
2023-01-30T02:53:41.198Z,20.00
2023-01-30T02:56:11.302Z,21.23
2023-01-30T02:58:46.830Z,19.02
2023-01-30T03:02:11.868Z,23.75
2023-01-30T03:05:00.917Z,26.45
2023-01-30T03:07:46.452Z,19.30
2023-01-30T03:10:31.569Z,28.90
2023-01-30T03:13:16.636Z,24.17
2023-01-30T03:15:52.720Z,21.10
2023-01-30T03:18:23.390Z,27.38
2023-01-30T03:20:56.898Z,18.55
2023-01-30T03:23:26.710Z,19.98
2023-01-30T03:25:56.970Z,22.42
2023-01-30T03:28:28.324Z,24.38
2023-01-30T03:31:00.886Z,22.02
2023-01-30T03:33:31.934Z,26.15
2023-01-30T03:36:03.400Z,23.08
2023-01-30T03:38:34.553Z,21.42
2023-01-30T03:41:04.878Z,17.13
2023-01-30T03:43:36.495Z,22.45
2023-01-30T03:46:08.346Z,20.13
2023-01-30T03:48:40.961Z,22.13
2023-01-30T03:51:16.499Z,25.25
2023-01-30T03:53:46.223Z,19.80
2023-01-30T03:56:16.033Z,25.45
2023-01-30T03:58:46.966Z,23.55
2023-01-30T04:01:23.216Z,18.95
2023-01-30T04:03:55.642Z,18.15
2023-01-30T04:06:26.903Z,17.55
2023-01-30T04:08:58.597Z,21.15
2023-01-30T04:11:55.400Z,17.60
2023-01-30T04:14:26.142Z,21.00
2023-01-30T04:17:15.112Z,22.70
2023-01-30T04:20:09.817Z,22.65
2023-01-30T04:22:44.090Z,23.80
2023-01-30T04:25:21.067Z,20.95
2023-01-30T04:27:52.017Z,20.05
2023-01-30T04:30:27.593Z,17.42
2023-01-30T04:33:12.168Z,19.10
2023-01-30T04:35:42.634Z,20.60
2023-01-30T04:38:13.697Z,18.25
2023-01-30T04:40:43.858Z,17.25
2023-01-30T04:43:17.593Z,23.05
2023-01-30T04:46:09.269Z,19.65
2023-01-30T04:48:39.874Z,19.70
2023-01-30T04:51:09.864Z,21.70
2023-01-30T04:53:43.029Z,20.42
2023-01-30T04:56:13.493Z,19.08
2023-01-30T04:58:44.270Z,19.92
2023-01-30T05:01:20.687Z,28.80
2023-01-30T05:03:54.563Z,21.90
2023-01-30T05:06:24.818Z,21.63
2023-01-30T05:08:57.904Z,21.67
2023-01-30T05:11:29.957Z,23.33
2023-01-30T05:14:06.217Z,21.38
2023-01-30T05:16:36.346Z,26.10
2023-01-30T05:19:06.281Z,27.13
2023-01-30T05:21:36.215Z,25.35
2023-01-30T05:24:08.633Z,24.45
2023-01-30T05:26:39.027Z,22.60
2023-01-30T05:29:08.757Z,26.77
2023-01-30T05:31:39.930Z,25.75
2023-01-30T05:34:12.491Z,24.88
2023-01-30T05:36:45.240Z,31.25
2023-01-30T05:39:16.400Z,26.63
2023-01-30T05:41:46.169Z,26.58
2023-01-30T05:44:15.825Z,26.67
2023-01-30T05:46:45.931Z,23.88
2023-01-30T05:49:16.164Z,26.55
2023-01-30T05:51:45.969Z,28.70
2023-01-30T05:54:17.246Z,25.02
2023-01-30T05:56:51.818Z,27.77
2023-01-30T05:59:21.772Z,20.98
2023-01-30T06:01:51.504Z,28.52
2023-01-30T06:04:21.012Z,20.77
2023-01-30T06:06:52.085Z,26.70
2023-01-30T06:09:23.299Z,23.85
2023-01-30T06:11:55.874Z,21.50
2023-01-30T06:14:25.399Z,21.85
2023-01-30T06:16:57.777Z,25.15
2023-01-30T06:19:27.644Z,27.08
2023-01-30T06:21:57.740Z,20.60
2023-01-30T06:24:28.709Z,22.00
2023-01-30T06:26:58.234Z,29.15
2023-01-30T06:29:27.779Z,19.73
2023-01-30T06:31:57.310Z,26.50
2023-01-30T06:34:27.021Z,29.17
2023-01-30T06:36:56.747Z,23.83
2023-01-30T06:39:27.644Z,26.15
2023-01-30T06:41:57.296Z,23.75
2023-01-30T06:44:26.682Z,21.42
2023-01-30T06:46:59.603Z,20.00
2023-01-30T06:49:29.149Z,24.45
2023-01-30T06:51:58.951Z,22.17
2023-01-30T06:54:30.045Z,27.30
2023-01-30T06:57:02.086Z,32.50
2023-01-30T06:59:31.758Z,21.58
2023-01-30T07:02:01.310Z,24.80
2023-01-30T07:11:58.275Z,19.00
2023-01-30T07:14:27.909Z,18.02
2023-01-30T07:16:57.436Z,15.40
2023-01-30T07:19:27.059Z,19.48
2023-01-30T07:21:56.822Z,15.85
2023-01-30T07:24:26.524Z,16.73
2023-01-30T07:26:57.401Z,12.73
2023-01-30T07:29:26.972Z,12.27
2023-01-30T07:31:56.709Z,15.77
2023-01-30T07:34:25.971Z,15.20
2023-01-30T07:36:55.423Z,13.77
2023-01-30T07:39:24.901Z,12.43
2023-01-30T07:41:56.723Z,16.83
2023-01-30T07:44:29.324Z,13.13
2023-01-30T07:46:59.062Z,17.52
2023-01-30T07:49:28.803Z,13.55
2023-01-30T07:51:58.078Z,12.13
2023-01-30T07:54:27.980Z,14.95
2023-01-30T07:56:57.181Z,14.90
2023-01-30T07:59:28.264Z,13.60
2023-01-30T08:01:58.831Z,16.73
2023-01-30T08:04:28.475Z,10.25
2023-01-30T08:06:57.772Z,10.93
2023-01-30T08:09:26.991Z,9.75
2023-01-30T08:11:56.542Z,11.65
2023-01-30T08:14:28.914Z,11.27
2023-01-30T08:16:58.818Z,14.18
2023-01-30T08:19:30.443Z,11.98
2023-01-30T08:22:01.488Z,10.52
2023-01-30T08:24:33.936Z,11.48
2023-01-30T08:27:03.463Z,14.85
2023-01-30T08:29:34.382Z,8.73
2023-01-30T08:32:03.959Z,10.40
2023-01-30T08:34:33.463Z,11.23
2023-01-30T08:37:02.899Z,12.10
2023-01-30T08:39:32.521Z,11.55
2023-01-30T08:57:36.695Z,10.02
2023-01-30T09:00:07.184Z,8.52
2023-01-30T09:02:36.571Z,16.88
2023-01-30T09:05:07.173Z,8.95
2023-01-30T09:07:36.630Z,7.38
2023-01-30T09:10:08.431Z,9.93
2023-01-30T09:12:37.907Z,10.35
2023-01-30T09:15:08.704Z,7.50
2023-01-30T09:17:38.239Z,6.60
2023-01-30T09:20:08.845Z,6.10
2023-01-30T09:22:38.289Z,6.22
2023-01-30T09:25:10.079Z,8.18
2023-01-30T09:27:39.862Z,6.40
2023-01-30T09:30:10.790Z,7.07
2023-01-30T09:32:40.433Z,6.25
2023-01-30T09:35:10.153Z,4.13
2023-01-30T09:37:49.127Z,4.85
2023-01-30T09:40:33.534Z,4.93
2023-01-30T09:43:31.092Z,7.72
2023-01-30T09:46:28.516Z,5.32
2023-01-30T09:49:21.172Z,3.95
2023-01-30T09:52:14.356Z,3.88
2023-01-30T09:55:06.705Z,3.72
2023-01-30T09:57:50.698Z,7.72
2023-01-30T10:00:28.635Z,8.43
2023-01-30T10:03:08.712Z,8.25
2023-01-30T10:05:44.746Z,7.13
2023-01-30T10:08:42.282Z,2.50
2023-01-30T10:11:27.048Z,3.25
2023-01-30T10:14:23.069Z,2.45
2023-01-30T10:17:04.806Z,4.82
2023-01-30T10:19:58.723Z,8.60
2023-01-30T10:22:43.230Z,5.80
2023-01-30T10:25:29.173Z,3.47
2023-01-30T10:28:07.223Z,6.18
2023-01-30T10:30:40.130Z,6.07
2023-01-30T10:33:19.762Z,7.43
2023-01-30T10:35:59.307Z,11.77
2023-01-30T10:38:39.113Z,5.97
2023-01-30T10:41:21.462Z,10.15
2023-01-30T10:44:01.452Z,17.02
2023-01-30T10:46:50.621Z,4.90
2023-01-30T10:49:30.915Z,8.40
2023-01-30T10:52:09.066Z,6.38
2023-01-30T10:54:43.163Z,6.95
2023-01-30T10:57:27.399Z,16.92
2023-01-30T11:00:04.126Z,11.65
2023-01-30T11:02:42.509Z,17.45
2023-01-30T11:05:18.236Z,5.40
2023-01-30T11:07:49.788Z,6.80
2023-01-30T11:10:21.449Z,16.38
2023-01-30T11:12:54.523Z,12.30
2023-01-30T11:15:25.582Z,10.98
2023-01-30T11:18:40.382Z,12.77
2023-01-30T11:21:06.271Z,11.73
2023-01-30T11:23:37.835Z,4.97
2023-01-30T11:26:34.748Z,11.38
2023-01-30T11:29:26.182Z,22.40
2023-01-30T11:32:06.762Z,8.95
2023-01-30T11:35:16.792Z,11.45
2023-01-30T11:37:55.011Z,11.38
2023-01-30T11:40:38.366Z,13.07
2023-01-30T11:43:27.446Z,14.70
2023-01-30T11:46:06.303Z,10.82
2023-01-30T11:49:02.647Z,12.88
2023-01-30T11:52:16.815Z,12.82
2023-01-30T11:54:50.106Z,13.52
2023-01-30T11:57:36.594Z,11.45
2023-01-30T12:00:23.132Z,6.28
2023-01-30T12:03:07.747Z,7.97
2023-01-30T12:05:49.415Z,4.50
2023-01-30T12:08:50.561Z,4.93
2023-01-30T12:11:42.675Z,8.52
2023-01-30T12:17:55.646Z,9.32
2023-01-30T12:20:51.264Z,6.95
2023-01-30T12:23:41.859Z,4.35
2023-01-30T12:26:25.585Z,9.05
2023-01-30T12:29:10.535Z,7.50
2023-01-30T12:32:04.182Z,6.82
2023-01-30T12:34:42.752Z,13.07
2023-01-30T12:37:42.785Z,7.38
2023-01-30T12:44:18.725Z,20.30
2023-01-30T12:47:01.401Z,15.30
2023-01-30T12:50:06.430Z,10.65
2023-01-30T12:52:49.267Z,7.80
2023-01-30T12:55:34.358Z,15.45
2023-01-30T12:58:18.026Z,11.60
2023-01-30T13:01:22.747Z,12.88
2023-01-30T13:04:00.797Z,8.77
2023-01-30T13:07:01.047Z,11.02
2023-01-30T13:10:10.612Z,13.73
2023-01-30T13:13:03.072Z,7.40
2023-01-30T13:15:53.894Z,15.90
2023-01-30T13:18:36.190Z,5.75
2023-01-30T13:21:11.859Z,11.85
2023-01-30T13:23:49.950Z,4.78
2023-01-30T13:26:22.862Z,7.22
2023-01-30T13:28:58.351Z,5.45
2023-01-30T13:31:31.659Z,4.00
2023-01-30T13:34:07.921Z,9.38
2023-01-30T13:36:50.059Z,13.93
2023-01-30T13:39:27.608Z,6.43
2023-01-30T13:42:00.047Z,11.77
2023-01-30T13:44:53.253Z,8.38
2023-01-30T13:47:43.448Z,7.85
2023-01-30T13:50:39.191Z,8.13
2023-01-30T13:53:27.771Z,12.25
2023-01-30T13:56:40.737Z,11.38
2023-01-30T13:59:28.710Z,7.28
2023-01-30T14:02:34.498Z,6.95
2023-01-30T14:05:09.003Z,7.20
2023-01-30T14:07:57.683Z,3.88
2023-01-30T14:10:38.387Z,7.20
2023-01-30T14:13:20.902Z,5.97
2023-01-30T14:16:02.603Z,9.63
2023-01-30T14:18:43.700Z,6.50
2023-01-30T14:21:31.215Z,4.65
2023-01-30T14:24:07.402Z,2.22
2023-01-30T14:27:14.001Z,2.55
2023-01-30T14:30:13.564Z,11.98
2023-01-30T14:33:03.009Z,3.47
2023-01-30T14:35:49.054Z,8.65
2023-01-30T14:38:45.019Z,11.57
2023-01-30T14:41:32.735Z,5.10
2023-01-30T14:44:12.200Z,4.40
2023-01-30T14:46:54.398Z,12.82
2023-01-30T14:49:35.067Z,4.20
2023-01-30T14:52:13.633Z,3.83
2023-01-30T14:54:56.169Z,5.45
2023-01-30T14:57:40.575Z,1.90
2023-01-30T15:00:32.784Z,3.30
2023-01-30T15:03:44.268Z,5.82
2023-01-30T15:06:23.619Z,4.50
2023-01-30T15:09:05.091Z,6.25
2023-01-30T15:15:15.110Z,9.82
2023-01-30T15:18:12.324Z,7.38
2023-01-30T15:21:11.015Z,2.60
2023-01-30T15:24:10.304Z,7.43
2023-01-30T15:27:11.828Z,4.35
2023-01-30T15:30:30.871Z,4.85
2023-01-30T15:33:31.283Z,3.53
2023-01-30T15:36:40.226Z,10.38
2023-01-30T16:00:59.273Z,7.85
2023-01-30T16:05:09.069Z,5.97
2023-01-30T16:07:40.405Z,8.43
2023-01-30T16:10:16.121Z,6.97
2023-01-30T16:12:48.659Z,22.92
2023-01-30T16:15:21.579Z,7.20
2023-01-30T16:18:02.323Z,3.33
2023-01-30T16:21:00.175Z,4.90
2023-01-30T16:23:43.143Z,8.35
2023-01-30T16:26:22.012Z,6.47
2023-01-30T16:28:54.450Z,5.55
2023-01-30T16:31:27.996Z,3.58
2023-01-30T16:33:58.481Z,7.85
2023-01-30T16:36:35.144Z,7.78
2023-01-30T17:04:28.654Z,10.82
2023-01-30T17:07:01.687Z,7.85
2023-01-30T17:09:45.483Z,17.67
2023-01-30T17:12:53.767Z,11.32
2023-01-30T17:15:31.406Z,7.93
2023-01-30T17:18:01.380Z,17.33
2023-01-30T17:20:41.195Z,11.73
2023-01-30T17:23:23.994Z,6.97
2023-01-30T17:25:54.031Z,12.55
2023-01-30T17:28:24.441Z,10.32
2023-01-30T17:30:58.894Z,9.35
2023-01-30T17:33:28.767Z,24.23
2023-01-30T17:35:59.555Z,8.82
2023-01-30T17:38:37.299Z,7.97
2023-01-30T17:41:10.042Z,4.53
2023-01-30T17:43:39.927Z,8.07
2023-01-30T17:46:17.704Z,4.43
2023-01-30T17:48:52.408Z,9.85
2023-01-30T17:59:49.883Z,5.43
2023-01-30T18:02:19.400Z,7.10
2023-01-30T18:04:49.183Z,12.80
2023-01-30T18:07:19.600Z,10.27
2023-01-30T18:09:55.234Z,11.68
2023-01-30T18:12:26.763Z,8.50
2023-01-30T18:15:01.336Z,9.63
2023-01-30T18:17:31.610Z,12.45
2023-01-30T18:20:03.852Z,10.00
2023-01-30T18:22:33.814Z,29.40
2023-01-30T18:25:03.737Z,9.55
2023-01-30T18:27:44.831Z,12.63
2023-01-30T18:30:17.933Z,11.57
2023-01-30T18:32:54.624Z,16.88
2023-01-30T18:35:28.991Z,17.02
2023-01-30T18:38:02.652Z,19.20
2023-01-30T18:40:39.371Z,11.85
2023-01-30T18:43:10.323Z,9.48
2023-01-30T18:45:39.871Z,11.35
2023-01-30T18:48:09.518Z,16.67
2023-01-30T18:50:39.224Z,13.63
2023-01-30T18:53:08.878Z,8.52
2023-01-30T18:55:38.453Z,14.32
2023-01-30T18:58:11.115Z,11.32
2023-01-30T19:00:40.747Z,11.93
2023-01-30T19:03:10.451Z,12.80
2023-01-30T19:05:55.596Z,24.35
2023-01-30T19:08:26.908Z,13.23
2023-01-30T19:11:28.511Z,13.77
2023-01-30T19:14:05.431Z,10.02
2023-01-30T19:16:47.403Z,10.27
2023-01-30T19:19:34.766Z,9.55
2023-01-30T19:22:11.484Z,15.40
2023-01-30T19:28:47.303Z,17.17
2023-01-30T19:40:40.127Z,18.33
2023-01-30T19:43:33.885Z,13.32
2023-01-30T19:46:33.048Z,15.13
2023-01-30T20:53:48.461Z,11.50
2023-01-30T21:10:06.672Z,7.90
2023-01-30T21:12:45.760Z,14.50
2023-01-30T21:15:20.249Z,13.35
2023-01-30T21:18:00.357Z,4.80
2023-01-30T21:20:32.860Z,10.63
2023-01-30T21:26:23.886Z,11.07
2023-01-30T21:32:02.545Z,18.52
2023-01-30T21:34:40.307Z,20.15
2023-01-30T21:37:35.604Z,14.40
2023-01-30T21:40:51.899Z,10.02
2023-01-30T21:43:34.280Z,18.42
2023-01-30T21:46:07.480Z,10.05
2023-01-30T21:48:49.579Z,13.02
2023-01-30T21:51:22.745Z,6.95
2023-01-30T21:53:58.661Z,12.82
2023-01-30T21:56:38.980Z,9.00
2023-01-30T21:59:11.787Z,6.88
2023-01-30T22:01:42.984Z,12.52
2023-01-30T22:04:14.363Z,8.35
2023-01-30T22:06:45.224Z,9.82
2023-01-30T22:09:17.357Z,4.78
2023-01-30T22:11:47.790Z,7.28
2023-01-30T22:14:19.364Z,17.27
2023-01-30T22:16:49.424Z,9.57
2023-01-30T22:19:19.302Z,10.25
2023-01-30T22:21:48.902Z,9.13
2023-01-30T22:24:19.559Z,16.05
2023-01-30T22:26:49.922Z,15.55
2023-01-30T22:29:21.767Z,6.70
2023-01-30T22:31:52.167Z,13.75
2023-01-30T22:34:25.442Z,21.58
2023-01-30T22:36:55.880Z,9.27
2023-01-30T22:39:25.592Z,15.57
2023-01-30T22:41:55.679Z,10.63
2023-01-30T22:44:27.003Z,12.15
2023-01-30T22:46:56.557Z,20.05
2023-01-30T22:49:26.048Z,13.77
2023-01-30T22:51:55.647Z,12.48
2023-01-30T22:54:25.768Z,9.85
2023-01-30T22:56:56.106Z,17.88
2023-01-30T22:59:29.085Z,11.20
2023-01-30T23:01:58.943Z,9.45
2023-01-30T23:04:29.377Z,9.55
2023-01-30T23:06:59.764Z,21.30
2023-01-30T23:09:29.691Z,7.53
2023-01-30T23:12:31.853Z,14.23
2023-01-30T23:15:03.460Z,13.23
2023-01-30T23:17:50.204Z,15.43
2023-01-30T23:20:24.766Z,12.82
2023-01-30T23:22:54.662Z,8.80
2023-01-30T23:25:24.512Z,18.48
2023-01-30T23:27:55.176Z,8.90
2023-01-30T23:30:26.902Z,9.88
2023-01-30T23:32:56.869Z,10.65
2023-01-30T23:35:28.783Z,10.27
2023-01-30T23:38:16.962Z,13.70
2023-01-30T23:40:47.662Z,13.55
2023-01-30T23:43:19.418Z,20.10
2023-01-30T23:45:56.243Z,7.40
2023-01-30T23:48:26.644Z,11.32
2023-01-30T23:50:56.444Z,15.48
2023-01-30T23:53:26.617Z,14.07
2023-01-30T23:55:56.390Z,10.05
2023-01-30T23:58:26.794Z,12.05
